Atchison, KS

1:02 PM CST on December 14, 2019 (GMT -0600)
Newmann Farm | | Change Station
Active Advisory: Winter Weather Advisory

Elev 873 ft 39.64 °N, 95.11 °W | Updated 17 minutes ago

Partly Cloudy
Partly Cloudy
25.5 °F
Feels Like 17 °F
N
8
Wind Variable Wind from NNW
Gusts 14.0 mph

Today
High -- | Low -- °F
--% Chance of Precip.
Yesterday
High -- | Low -- °F
Precip. -- in
Pressure 30.02 in
Visibility 10.0 miles
Clouds Overcast 1900 ft
Windchill 17 °F
Dew Point 13 °F
Humidity 62%
Rainfall 0.00 in
Snow Depth Not available.
7:33 AM 4:57 PM
Waning Gibbous, 92% visible
METAR KSTJ 141753Z 01010KT 10SM OVC019 M03/M08 A2999 RMK AO2 SLP165 T10281078 10000 21044 50001
Pressure 30.02 in
Visibility 10.0 miles
Clouds Overcast 1900 ft
Windchill 17 °F
Dew Point 13 °F
Humidity 62%
Rainfall 0.00 in
Snow Depth Not available.
7:33 AM 4:57 PM
Waning Gibbous, 92% visible
METAR KSTJ 141753Z 01010KT 10SM OVC019 M03/M08 A2999 RMK AO2 SLP165 T10281078 10000 21044 50001

Get Your Daily Forecast Email!

Thanks for signing up!

Be on the lookout for a verification email in your inbox.

You'll start receiving severe weather alerts in your inbox..

×

10-Day Weather Forecast

Almanac

Astronomy

Dec. 14, 2019 Rise Set
Actual Time
Civil Twilight
Nautical Twilight
Astronomical Twilight
Moon
Length of Visible Light
Length of Day
Tomorrow will be .
, % of the Moon is Illuminated

Today's Extremes

State Highs State Lows

Community

WunderPhotos

Category 6

Welcome to Category 6. This is the collective home for Weather Underground's featured writeups by Dr. Jeff Masters (right), Bob Henson (left), Chris Burt, and other regular contributors.

Nearby

Air Quality

  Air Quality AQ Index Pollutant
Not available.

Snow Depth

Station Depth Elevation

Earthquake Activity

City Distance Mag. Time & Date
Minimum magnitude displayed is 2.5.

Coastal Water Temperatures

Place Temperature

Stations

Nearby Weather Stations

Station Location Temp. Windchill Dew Point Humidity Wind Precip. Elev Updated Type
                   

Watches & Warnings

Winter Weather Advisory
Issued: 3:10 AM CST Dec. 14, 2019 – National Weather Service

... Winter Weather Advisory in effect from 9 am Sunday to 6 PM CST
Monday...

* what... snow expected. Total snow accumulations of 3 to 5
inches.

* Where... portions of northeast Kansas and north central and
northwest Missouri.

* When... from 9 am Sunday to 6 PM CST Monday.

* Impacts... plan on slippery Road conditions. The hazardous
conditions could impact the morning or evening commute.

Precautionary/preparedness actions...

Slow down and use caution while traveling.

The latest Road conditions for the state you are calling from can
be obtained by calling 5 1 1.